This is the latest recevied weather packets stored in our database for station/object EA1JVZ-1. If no packets are shown the sender has not sent any weather packets the latest 10 day(s).
| Time | Temp. | Humidity | Pressure | Rain* | Wind** | Luminosity | Snow |
|---|---|---|---|---|---|---|---|
| 1777564269 | 27.22° C | 44% | 1026.4 hPa | - | - | - | - |
| 1777563370 | 33.89° C | 37% | 1026.2 hPa | - | - | - | - |
| 1777561569 | 33.33° C | 36% | 1026.2 hPa | - | - | - | - |
| 1777560669 | 29.44° C | 39% | 1026.5 hPa | - | - | - | - |
| 1777557973 | 25.56° C | 46% | 1026.6 hPa | - | - | - | - |
| 1777557068 | 30.56° C | 39% | 1026.6 hPa | - | - | - | - |
| 1777556167 | 31.11° C | 38% | 1026.5 hPa | - | - | - | - |
| 1777555267 | 30° C | 38% | 1026.6 hPa | - | - | - | - |
| 1777554366 | 26.67° C | 42% | 1026.7 hPa | - | - | - | - |
| 1777551668 | 25.56° C | 43% | 1026.6 hPa | - | - | - | - |
| 1777549870 | 26.11° C | 43% | 1026.8 hPa | - | - | - | - |
| 1777548065 | 21.67° C | 44% | 1027.1 hPa | - | - | - | - |
| 1777547165 | 18.89° C | 47% | 1027.2 hPa | - | - | - | - |
| 1777546264 | 17.78° C | 48% | 1027.1 hPa | - | - | - | - |
| 1777545366 | 17.78° C | 48% | 1027.1 hPa | - | - | - | - |
| 1777542664 | 17.22° C | 45% | 1026.9 hPa | - | - | - | - |
| 1777541764 | 15.56° C | 47% | 1027.1 hPa | - | - | - | - |
| 1777539963 | 13.33° C | 48% | 1026.8 hPa | - | - | - | - |
| 1777539063 | 13.33° C | 48% | 1026.9 hPa | - | - | - | - |
| 1777538162 | 12.78° C | 48% | 1026.8 hPa | - | - | - | - |
| 1777537262 | 12.22° C | 48% | 1026.7 hPa | - | - | - | - |
| 1777536366 | 11.67° C | 48% | 1026.7 hPa | - | - | - | - |
| 1777535462 | 10.56° C | 48% | 1026.7 hPa | - | - | - | - |
| 1777533662 | 8.89° C | 48% | 1026.5 hPa | - | - | - | - |
| 1777532762 | 8.33° C | 48% | 1026.3 hPa | - | - | - | - |
* Rain since midnight (hover to see other rain measurements)
** Current wind speed in m/s (hover to see current wind gust speed)